Pagrindinis puslapis
METAR-TAF:

METAR-TAF

Oro uostai :

Batam, Indonezija

platuma: 01-07-15N, ilguma: 104-07-07E, Aukštis: 38 m

Dabartinis oras

Ataskaita buvo paskelbta 24 minutes, ne 21:00 UTC
Vėjas 4 kt iš Pietryčių
Temperatūra 26°C
Drėgmė 89%
Slėgis 1011 hPa
Matomumas: 5000 m

METAR: WIDD 202100Z AUTO 13004KT 5000NDV ////// 26/24 Q1011

Laikas: 04:24 (21:24 UTC)

Prognozė

Ataskaita buvo paskelbta 4 valandos ir 24 minutes, ne 17:00 UTC
Prognozė galioja nuo 20 metu 18 UTC su 21 metu 18 UTC
Vėjas 5 kt iš Pietryčių
Matomumas: 6000 m
Mažai debesys ne aukštis 1400 ft

TAF: WIDD 201700Z 2018/2118 14005KT 6000 FEW014

Orai ataskaitas ir orų prognozės (METAR, TAF).

turimą stotys yra geltonos ir raudonos taškus žemėlapyje.

Perkelti pele per norėdami pamatyti stoties vardą.

Tada spustelėkite, norėdami matyti oro stebėjimo ir prognozės.

Norėdami pakeisti žemėlapį: spustelėkite ant žalios mygtukų su juodo kryžiaus žemyn,; žalią mygtuką su brūkšneliu, jei norite nutolinti; arba žalių rodyklių gretimoms žemėlapius.


METAR-TAF: